Time;durP1;ratioP1;P1;durP2;ratioP2;P2;SDS_P1;SDS_P2;PMS_P1;PMS_P2;Temp;Humidity;BMP_temperature;BMP_pressure;BME280_temperature;BME280_humidity;BME280_pressure;Samples;Min_cycle;Max_cycle;Signal;HPM_P1;HPM_P2
2022/04/16 00:02:11;;;;;;;15.18;9.23;;;10.80;69.50;;;;;;5113507;28;20466;-68
2022/04/16 00:04:37;;;;;;;16.40;9.10;;;10.70;69.40;;;;;;5113571;28;20031;-68
2022/04/16 00:07:03;;;;;;;15.85;9.13;;;10.70;69.50;;;;;;5113418;28;20036;-68
2022/04/16 00:09:29;;;;;;;14.95;9.23;;;10.70;69.50;;;;;;5113396;28;20028;-67
2022/04/16 00:11:54;;;;;;;13.98;8.63;;;10.80;69.50;;;;;;5113554;28;20028;-67
2022/04/16 00:14:20;;;;;;;15.48;9.55;;;10.70;69.10;;;;;;5095233;28;20048;-68
2022/04/16 00:16:46;;;;;;;16.50;9.95;;;10.80;69.10;;;;;;5113349;28;20036;-67
2022/04/16 00:19:11;;;;;;;13.60;8.98;;;10.70;69.00;;;;;;5113307;28;20032;-68
2022/04/16 00:21:38;;;;;;;12.95;8.52;;;10.70;68.80;;;;;;5113268;28;20024;-68
2022/04/16 00:24:04;;;;;;;15.32;9.05;;;10.70;68.50;;;;;;5113323;28;20030;-68
2022/04/16 00:26:29;;;;;;;13.52;8.75;;;10.60;68.20;;;;;;5113268;28;20036;-68
2022/04/16 00:28:55;;;;;;;12.95;8.55;;;10.50;68.20;;;;;;5113294;28;20107;-68
2022/04/16 00:31:21;;;;;;;13.38;9.05;;;10.40;68.40;;;;;;5113206;28;20024;-68
2022/04/16 00:33:46;;;;;;;15.95;9.88;;;10.30;68.40;;;;;;5113117;28;20067;-68
2022/04/16 00:36:16;;;;;;;16.55;9.45;;;10.30;68.70;;;;;;5113159;28;20024;-67
2022/04/16 00:38:42;;;;;;;16.67;9.73;;;10.30;69.00;;;;;;5113141;28;20016;-68
2022/04/16 00:41:08;;;;;;;15.48;9.93;;;10.30;69.30;;;;;;5113119;28;20034;-67
2022/04/16 00:43:34;;;;;;;15.70;9.73;;;10.20;69.50;;;;;;5113117;28;20024;-68
2022/04/16 00:46:00;;;;;;;17.17;10.27;;;10.20;70.00;;;;;;5113041;28;20028;-68
2022/04/16 00:48:26;;;;;;;16.65;10.32;;;10.20;70.10;;;;;;5113042;28;20020;-68
2022/04/16 00:50:53;;;;;;;18.85;10.63;;;10.20;71.10;;;;;;5113054;28;20059;-67
2022/04/16 00:53:19;;;;;;;17.42;11.02;;;10.20;70.50;;;;;;5112999;28;20024;-67
2022/04/16 00:55:46;;;;;;;16.25;10.43;;;10.20;70.60;;;;;;5112903;28;20024;-68
2022/04/16 00:58:12;;;;;;;15.63;10.02;;;10.30;70.40;;;;;;5113050;28;20048;-67
2022/04/16 01:00:38;;;;;;;16.20;10.43;;;10.20;71.30;;;;;;5113549;28;20035;-67
2022/04/16 01:03:05;;;;;;;17.05;10.25;;;10.20;70.60;;;;;;5116821;28;20028;-67
2022/04/16 01:05:31;;;;;;;18.67;10.45;;;10.10;70.70;;;;;;5116717;28;20044;-67
2022/04/16 01:07:58;;;;;;;19.73;11.27;;;10.10;70.80;;;;;;5116746;28;20028;-67
2022/04/16 01:10:29;;;;;;;17.33;11.00;;;10.00;71.00;;;;;;5116660;28;20027;-67
2022/04/16 01:13:05;;;;;;;19.50;10.90;;;10.10;71.20;;;;;;5116646;28;20024;-67
2022/04/16 01:15:31;;;;;;;17.95;10.85;;;10.10;71.20;;;;;;5116378;28;20086;-67
2022/04/16 01:17:58;;;;;;;17.40;10.18;;;10.10;71.00;;;;;;5116447;28;20020;-67
2022/04/16 01:20:24;;;;;;;19.40;10.57;;;10.10;71.00;;;;;;5116470;28;20028;-68
2022/04/16 01:22:51;;;;;;;20.90;10.80;;;10.20;70.90;;;;;;5116465;28;20375;-68
2022/04/16 01:25:18;;;;;;;16.60;10.63;;;10.10;71.60;;;;;;5116344;28;20023;-67
2022/04/16 01:27:45;;;;;;;17.77;10.85;;;10.10;70.80;;;;;;5116252;28;20028;-68
2022/04/16 01:30:12;;;;;;;16.77;10.50;;;10.10;70.90;;;;;;5116283;28;20028;-67
2022/04/16 01:32:38;;;;;;;16.00;10.32;;;10.10;70.90;;;;;;5116181;28;20035;-68
2022/04/16 01:35:07;;;;;;;18.67;10.43;;;10.10;71.00;;;;;;5116095;28;20065;-68
2022/04/16 01:37:37;;;;;;;19.85;11.35;;;10.10;70.90;;;;;;5116148;28;20024;-67
2022/04/16 01:40:05;;;;;;;21.30;11.77;;;10.10;71.00;;;;;;5116103;28;20046;-68
2022/04/16 01:42:32;;;;;;;19.33;11.15;;;10.10;70.90;;;;;;5116025;28;20095;-68
2022/04/16 01:45:05;;;;;;;20.63;11.27;;;10.10;71.00;;;;;;5116034;28;20517;-67
2022/04/16 01:47:36;;;;;;;19.02;11.95;;;10.00;71.10;;;;;;5116042;28;20084;-68
2022/04/16 01:50:06;;;;;;;20.23;11.38;;;10.00;71.30;;;;;;5115992;28;20479;-68
2022/04/16 01:52:32;;;;;;;23.05;11.80;;;10.00;71.30;;;;;;5115825;28;20081;-68
2022/04/16 01:54:59;;;;;;;22.15;11.50;;;10.00;71.40;;;;;;5115744;28;20024;-68
2022/04/16 01:57:24;;;;;;;21.08;11.95;;;10.00;71.50;;;;;;5115759;28;20044;-67
2022/04/16 01:59:50;;;;;;;17.83;11.23;;;9.90;71.70;;;;;;5115705;28;20035;-67
2022/04/16 02:02:16;;;;;;;19.85;11.80;;;9.90;71.70;;;;;;5115657;28;20024;-68
2022/04/16 02:04:42;;;;;;;20.98;12.57;;;9.90;71.70;;;;;;5115640;28;20028;-68
2022/04/16 02:07:08;;;;;;;23.83;12.23;;;9.90;71.70;;;;;;5115587;28;20083;-67
2022/04/16 02:09:34;;;;;;;17.42;11.13;;;9.90;71.70;;;;;;5115504;28;20055;-68
2022/04/16 02:12:00;;;;;;;20.95;11.55;;;9.90;71.80;;;;;;5115390;28;20028;-67
2022/04/16 02:14:26;;;;;;;21.38;11.80;;;9.90;71.80;;;;;;5115191;28;20051;-68
2022/04/16 02:16:51;;;;;;;21.08;11.77;;;9.80;72.00;;;;;;5115395;28;20044;-68
2022/04/16 02:19:17;;;;;;;22.00;12.55;;;9.80;72.40;;;;;;5115325;28;20028;-68
2022/04/16 02:21:44;;;;;;;20.63;12.23;;;9.80;72.40;;;;;;5115300;28;20024;-68
2022/04/16 02:24:10;;;;;;;17.75;11.07;;;9.80;72.30;;;;;;5115213;28;20028;-68
2022/04/16 02:26:36;;;;;;;19.70;11.90;;;9.80;72.40;;;;;;5115184;28;20034;-68
2022/04/16 02:29:02;;;;;;;20.52;11.68;;;9.80;72.30;;;;;;5097259;28;20025;-68
2022/04/16 02:31:27;;;;;;;18.63;11.15;;;9.80;72.30;;;;;;5115104;28;20426;-68
2022/04/16 02:33:55;;;;;;;19.23;10.85;;;9.80;72.40;;;;;;5115009;28;20035;-68
2022/04/16 02:36:25;;;;;;;19.05;11.35;;;9.70;72.30;;;;;;5115002;28;20080;-68
2022/04/16 02:38:54;;;;;;;18.83;11.15;;;9.80;72.40;;;;;;5115006;28;20028;-68
2022/04/16 02:41:21;;;;;;;17.13;10.90;;;9.80;72.50;;;;;;5114878;28;20100;-68
2022/04/16 02:43:46;;;;;;;20.15;11.68;;;9.70;72.50;;;;;;5114861;28;20054;-68
2022/04/16 02:48:56;;;;;;;22.63;11.90;;;9.70;72.60;;;;;;5114944;28;20098;-67
2022/04/16 02:51:22;;;;;;;21.58;11.82;;;9.60;72.90;;;;;;5114723;28;20028;-67
2022/04/16 02:53:49;;;;;;;19.67;11.82;;;9.50;73.00;;;;;;5114585;28;20016;-67
2022/04/16 02:56:15;;;;;;;19.23;11.30;;;9.60;73.10;;;;;;5114657;28;20062;-67
2022/04/16 02:58:40;;;;;;;22.08;12.52;;;9.60;73.10;;;;;;5114557;28;20027;-67
2022/04/16 03:01:06;;;;;;;22.20;12.07;;;9.60;73.10;;;;;;5114500;28;20032;-67
2022/04/16 03:03:32;;;;;;;21.65;11.80;;;9.50;73.10;;;;;;5114551;28;20024;-67
2022/04/16 03:05:58;;;;;;;19.70;11.80;;;9.50;73.20;;;;;;5114523;28;20028;-67
2022/04/16 03:08:24;;;;;;;23.17;12.73;;;9.50;73.20;;;;;;5114404;28;20076;-67
2022/04/16 03:10:50;;;;;;;22.73;12.75;;;9.50;73.40;;;;;;5114341;28;20027;-68
2022/04/16 03:13:16;;;;;;;24.35;12.38;;;9.40;73.50;;;;;;5114296;28;20028;-68
2022/04/16 03:18:26;;;;;;;19.50;12.18;;;9.50;73.40;;;;;;5114354;28;20039;-67
2022/04/16 03:20:52;;;;;;;20.92;12.38;;;9.40;73.70;;;;;;5114174;28;20024;-68
2022/04/16 03:23:17;;;;;;;22.63;12.27;;;9.40;73.60;;;;;;5113631;28;20096;-67
2022/04/16 03:25:43;;;;;;;25.40;12.75;;;9.40;73.50;;;;;;5114214;28;20084;-67
2022/04/16 03:28:09;;;;;;;19.58;11.90;;;9.40;73.60;;;;;;5113939;28;20032;-67
2022/04/16 03:30:36;;;;;;;21.20;12.80;;;9.40;73.60;;;;;;5113991;28;20090;-67
2022/04/16 03:33:01;;;;;;;22.40;12.40;;;9.40;73.40;;;;;;5113968;28;20048;-67
2022/04/16 03:35:27;;;;;;;22.40;12.57;;;9.40;73.40;;;;;;5113818;28;20032;-67
2022/04/16 03:37:54;;;;;;;21.00;12.20;;;9.40;73.40;;;;;;5113893;28;20028;-67
2022/04/16 03:40:23;;;;;;;22.80;12.82;;;9.40;73.40;;;;;;5113881;28;20046;-67
2022/04/16 03:42:56;;;;;;;23.13;13.18;;;9.40;73.40;;;;;;5113789;28;20023;-67
2022/04/16 03:45:42;;;;;;;20.63;12.15;;;9.40;73.20;;;;;;5113841;28;20103;-67
2022/04/16 03:48:08;;;;;;;21.95;12.68;;;9.40;73.00;;;;;;5113549;28;20052;-67
2022/04/16 03:50:34;;;;;;;24.52;13.13;;;9.30;73.00;;;;;;5113713;28;20028;-67
2022/04/16 03:53:01;;;;;;;23.40;12.65;;;9.30;73.30;;;;;;5113642;28;20175;-67
2022/04/16 04:00:59;;;;;;;23.17;13.10;;;9.30;73.50;;;;;;5113809;28;20081;-67
2022/04/16 04:03:25;;;;;;;23.98;13.13;;;9.30;73.60;;;;;;5113688;28;20076;-67
2022/04/16 04:05:53;;;;;;;23.92;13.23;;;9.30;73.90;;;;;;5113597;28;20085;-67
2022/04/16 04:08:20;;;;;;;22.60;13.10;;;9.30;73.90;;;;;;5113319;28;20051;-67
2022/04/16 04:10:46;;;;;;;25.23;13.52;;;9.30;73.90;;;;;;5113409;28;20024;-67
2022/04/16 04:13:16;;;;;;;21.83;12.20;;;9.30;73.80;;;;;;5113408;28;20024;-67
2022/04/16 04:15:42;;;;;;;24.75;13.48;;;9.20;73.90;;;;;;5113168;28;20066;-68
2022/04/16 04:18:07;;;;;;;22.75;13.50;;;9.20;74.10;;;;;;5113330;28;20035;-67
2022/04/16 04:20:36;;;;;;;23.55;13.60;;;9.20;74.00;;;;;;5113348;28;20029;-67
2022/04/16 04:23:03;;;;;;;27.77;13.88;;;9.20;74.00;;;;;;5113290;28;20426;-67
2022/04/16 04:25:30;;;;;;;23.80;13.32;;;9.20;74.00;;;;;;5113447;28;20025;-67
2022/04/16 04:27:56;;;;;;;26.67;13.32;;;9.20;74.10;;;;;;5113352;28;20032;-67
2022/04/16 04:30:22;;;;;;;24.58;13.57;;;9.10;74.20;;;;;;5113215;28;20054;-67
2022/04/16 04:32:48;;;;;;;22.77;12.95;;;9.20;74.50;;;;;;5113314;28;20096;-68
2022/04/16 04:35:13;;;;;;;27.85;14.63;;;9.20;74.40;;;;;;5113232;28;20039;-68
2022/04/16 04:37:39;;;;;;;27.48;14.48;;;9.00;74.60;;;;;;5117237;28;20043;-67
2022/04/16 04:40:05;;;;;;;27.88;15.05;;;9.00;75.10;;;;;;5117392;28;20031;-68
2022/04/16 04:42:33;;;;;;;24.42;13.93;;;8.90;75.20;;;;;;5117220;28;20023;-67
2022/04/16 04:44:59;;;;;;;30.75;14.35;;;8.90;75.40;;;;;;5117274;28;20040;-68
2022/04/16 04:47:25;;;;;;;28.20;14.73;;;8.90;75.40;;;;;;5117141;28;20039;-67
2022/04/16 04:49:51;;;;;;;28.00;14.13;;;8.90;75.40;;;;;;5117108;28;20024;-68
2022/04/16 04:52:21;;;;;;;30.05;15.45;;;8.90;75.80;;;;;;5117012;28;20055;-67
2022/04/16 04:54:46;;;;;;;27.60;14.48;;;8.90;75.90;;;;;;5116949;28;20032;-67
2022/04/16 04:57:12;;;;;;;28.23;14.55;;;8.80;76.30;;;;;;5116916;28;20028;-67
2022/04/16 04:59:37;;;;;;;29.73;15.90;;;8.80;76.60;;;;;;5116869;28;20028;-67
2022/04/16 05:02:05;;;;;;;30.25;14.90;;;8.80;77.20;;;;;;5098788;28;20028;-68
2022/04/16 05:04:31;;;;;;;28.08;15.35;;;8.70;77.60;;;;;;5116784;28;20097;-69
2022/04/16 05:06:57;;;;;;;30.85;14.88;;;8.70;77.70;;;;;;5116769;28;20024;-68
2022/04/16 05:09:23;;;;;;;28.42;14.98;;;8.70;77.80;;;;;;5116710;28;20028;-68
2022/04/16 05:11:49;;;;;;;30.63;15.18;;;8.70;78.00;;;;;;5116646;28;20059;-68
2022/04/16 05:14:15;;;;;;;28.42;15.05;;;8.80;77.80;;;;;;5116356;28;20040;-68
2022/04/16 05:16:41;;;;;;;29.27;15.07;;;8.80;78.00;;;;;;5116569;28;20020;-68
2022/04/16 05:19:07;;;;;;;29.55;14.70;;;8.90;78.00;;;;;;5116491;28;20032;-68
2022/04/16 05:21:32;;;;;;;28.25;14.30;;;8.80;78.20;;;;;;5098452;28;20023;-68
2022/04/16 05:23:58;;;;;;;30.17;15.27;;;8.80;78.20;;;;;;5116497;28;20502;-67
2022/04/16 05:26:24;;;;;;;29.63;15.15;;;8.80;78.60;;;;;;5116381;28;20088;-68
2022/04/16 05:28:49;;;;;;;32.95;16.55;;;8.80;78.60;;;;;;5116296;28;20024;-68
2022/04/16 05:31:18;;;;;;;29.98;15.80;;;8.80;79.20;;;;;;5116287;28;20039;-68
2022/04/16 05:36:28;;;;;;;29.90;15.10;;;8.80;79.10;;;;;;5116335;28;20107;-68
2022/04/16 05:38:53;;;;;;;30.83;15.32;;;8.90;78.90;;;;;;5116257;28;20404;-67
2022/04/16 05:41:19;;;;;;;36.55;17.02;;;8.90;79.40;;;;;;5116048;28;20083;-67
2022/04/16 05:43:44;;;;;;;34.15;17.20;;;8.90;79.80;;;;;;5116081;28;20039;-68
2022/04/16 05:46:10;;;;;;;32.45;16.55;;;8.90;79.70;;;;;;5115681;28;20050;-67
2022/04/16 05:48:36;;;;;;;31.65;16.65;;;8.80;80.40;;;;;;5115820;28;20043;-69
2022/04/16 05:51:03;;;;;;;38.75;17.75;;;8.80;80.40;;;;;;5115949;28;20031;-69
2022/04/16 05:53:30;;;;;;;31.92;15.90;;;8.90;81.40;;;;;;5115820;28;20040;-67
2022/04/16 05:55:56;;;;;;;34.78;17.25;;;8.80;81.80;;;;;;5115737;28;20032;-68
2022/04/16 05:58:21;;;;;;;33.42;17.70;;;8.90;81.50;;;;;;5115752;28;20024;-69
2022/04/16 06:00:48;;;;;;;32.53;16.80;;;8.90;81.50;;;;;;5115722;28;20027;-68
2022/04/16 06:03:14;;;;;;;37.67;17.15;;;8.90;81.30;;;;;;5115799;28;20027;-69
2022/04/16 06:05:39;;;;;;;37.60;17.92;;;9.00;81.90;;;;;;5115654;28;20036;-68
2022/04/16 06:08:05;;;;;;;33.67;16.60;;;9.00;82.00;;;;;;5115560;28;20020;-67
2022/04/16 06:10:31;;;;;;;33.33;17.58;;;9.00;81.90;;;;;;5115523;28;20360;-67
2022/04/16 06:12:56;;;;;;;33.45;17.27;;;9.00;82.20;;;;;;5115493;28;20064;-68
2022/04/16 06:15:22;;;;;;;35.72;17.23;;;9.00;82.20;;;;;;5115272;28;20059;-68
2022/04/16 06:17:47;;;;;;;37.70;18.02;;;9.00;82.50;;;;;;5115384;28;20032;-67
2022/04/16 06:20:14;;;;;;;34.35;17.88;;;9.00;82.60;;;;;;5115356;28;20035;-68
2022/04/16 06:22:39;;;;;;;33.70;17.02;;;9.00;82.60;;;;;;5115266;28;20111;-67
2022/04/16 06:25:08;;;;;;;36.85;17.40;;;9.10;83.00;;;;;;5115276;28;20032;-68
2022/04/16 06:27:40;;;;;;;35.97;17.95;;;9.10;82.80;;;;;;5115051;28;20035;-67
2022/04/16 06:30:08;;;;;;;36.75;17.95;;;9.20;83.30;;;;;;5115184;28;20106;-67
2022/04/16 06:32:34;;;;;;;36.80;17.70;;;9.20;82.80;;;;;;5115129;28;20074;-67
2022/04/16 06:35:00;;;;;;;36.53;18.38;;;9.30;83.30;;;;;;5114977;28;20028;-67
2022/04/16 06:37:26;;;;;;;35.33;17.83;;;9.30;83.00;;;;;;5114982;28;20083;-67
2022/04/16 06:39:51;;;;;;;36.80;18.02;;;9.30;83.30;;;;;;5114899;28;20054;-68
2022/04/16 06:42:17;;;;;;;33.08;17.48;;;9.40;82.90;;;;;;5114890;28;20027;-69
2022/04/16 06:44:42;;;;;;;34.85;17.08;;;9.50;83.10;;;;;;5114950;28;20427;-68
2022/04/16 06:47:08;;;;;;;35.08;18.05;;;9.50;83.20;;;;;;5114756;28;20106;-68
2022/04/16 06:49:34;;;;;;;34.85;18.08;;;9.60;83.30;;;;;;5114904;28;20030;-67
2022/04/16 06:51:59;;;;;;;36.42;20.25;;;9.70;83.00;;;;;;5114722;28;20036;-67
2022/04/16 06:54:25;;;;;;;34.45;18.00;;;9.70;84.00;;;;;;5114584;28;20063;-67
2022/04/16 06:56:50;;;;;;;32.92;17.20;;;9.80;83.20;;;;;;5114615;28;20016;-67
2022/04/16 06:59:16;;;;;;;36.17;18.80;;;9.80;82.90;;;;;;5113719;28;20040;-67
2022/04/16 07:01:41;;;;;;;38.15;18.80;;;9.90;83.50;;;;;;5096629;28;20036;-67
2022/04/16 07:04:07;;;;;;;35.78;18.52;;;10.00;83.20;;;;;;5114467;28;20050;-67
2022/04/16 07:06:32;;;;;;;34.08;17.38;;;10.10;83.50;;;;;;5114390;28;20036;-68
2022/04/16 07:08:58;;;;;;;35.95;17.55;;;10.10;83.60;;;;;;5114377;28;20056;-67
2022/04/16 07:11:23;;;;;;;35.33;18.33;;;10.10;83.30;;;;;;5114325;28;20028;-67
2022/04/16 07:13:49;;;;;;;30.90;15.68;;;10.30;83.60;;;;;;5114008;28;20048;-67
2022/04/16 07:16:15;;;;;;;33.58;16.35;;;10.30;83.00;;;;;;5096286;28;20048;-67
2022/04/16 07:18:40;;;;;;;32.72;16.48;;;10.30;84.00;;;;;;5114163;28;20084;-67
2022/04/16 07:21:06;;;;;;;30.40;16.70;;;10.40;83.30;;;;;;5114154;28;20070;-67
2022/04/16 07:23:31;;;;;;;33.22;16.30;;;10.50;83.40;;;;;;5096314;28;20016;-66
2022/04/16 07:25:57;;;;;;;33.47;16.67;;;10.60;83.10;;;;;;5114054;28;20475;-67
2022/04/16 07:28:23;;;;;;;33.10;17.38;;;10.60;82.90;;;;;;5113973;28;20028;-67
2022/04/16 07:30:49;;;;;;;32.65;17.40;;;10.70;83.10;;;;;;5113994;28;20036;-67
2022/04/16 07:33:15;;;;;;;28.77;15.63;;;10.80;82.50;;;;;;5113955;28;20028;-67
2022/04/16 07:35:41;;;;;;;29.77;16.38;;;10.80;82.00;;;;;;5113847;28;20086;-67
2022/04/16 07:38:06;;;;;;;33.53;17.52;;;10.90;82.10;;;;;;5113873;28;20088;-67
2022/04/16 07:40:33;;;;;;;26.85;15.32;;;10.90;82.90;;;;;;5113974;28;20031;-67
2022/04/16 07:43:02;;;;;;;30.23;15.95;;;11.00;81.30;;;;;;5113758;28;20016;-68
2022/04/16 07:45:29;;;;;;;29.95;16.15;;;11.00;81.40;;;;;;5113833;28;20032;-68
2022/04/16 07:47:54;;;;;;;33.20;17.95;;;11.10;81.40;;;;;;5113676;28;20494;-68
2022/04/16 07:50:20;;;;;;;28.98;15.65;;;11.20;81.40;;;;;;5113685;28;20024;-68
2022/04/16 07:52:46;;;;;;;33.05;16.15;;;11.30;80.60;;;;;;5113640;28;20028;-68
2022/04/16 07:55:13;;;;;;;33.25;16.35;;;11.40;81.10;;;;;;5113520;28;20020;-68
2022/04/16 07:57:38;;;;;;;26.55;15.38;;;11.50;80.60;;;;;;5113579;28;20020;-68
2022/04/16 08:00:06;;;;;;;28.60;15.50;;;11.60;80.30;;;;;;5113640;28;20028;-68
2022/04/16 08:02:31;;;;;;;28.08;14.70;;;11.70;80.80;;;;;;5113522;28;20031;-69
2022/04/16 08:04:58;;;;;;;23.23;13.05;;;11.80;79.30;;;;;;5113612;28;20032;-68
2022/04/16 08:07:24;;;;;;;27.23;14.43;;;11.90;78.50;;;;;;5113465;28;20100;-69
2022/04/16 08:09:49;;;;;;;25.20;15.52;;;11.90;77.10;;;;;;5113273;28;20024;-69
2022/04/16 08:12:15;;;;;;;26.35;14.40;;;11.90;77.90;;;;;;5095409;28;20036;-71
2022/04/16 08:14:41;;;;;;;25.73;14.77;;;12.00;77.60;;;;;;5113105;28;20051;-70
2022/04/16 08:17:06;;;;;;;25.65;13.38;;;12.10;77.00;;;;;;5113374;28;20044;-69
2022/04/16 08:19:32;;;;;;;24.05;13.40;;;12.20;77.20;;;;;;5113281;28;20024;-69
2022/04/16 08:21:58;;;;;;;22.40;12.65;;;12.30;76.70;;;;;;5113399;28;20043;-69
2022/04/16 08:26:51;;;;;;;19.88;11.98;;;12.40;75.30;;;;;;5113447;28;20028;-69
2022/04/16 08:29:17;;;;;;;23.83;13.35;;;12.40;74.90;;;;;;5113199;28;20088;-68
2022/04/16 08:31:43;;;;;;;25.27;13.77;;;12.60;76.00;;;;;;5113185;28;20085;-68
2022/04/16 08:34:09;;;;;;;23.13;13.45;;;12.70;75.40;;;;;;5113095;28;20032;-68
2022/04/16 08:36:36;;;;;;;24.05;13.05;;;12.80;74.70;;;;;;5113185;28;20057;-68
2022/04/16 08:39:03;;;;;;;20.23;11.90;;;12.80;74.80;;;;;;5113142;28;20020;-68
2022/04/16 08:41:30;;;;;;;21.13;11.98;;;12.90;73.70;;;;;;5095286;28;20035;-68
2022/04/16 08:43:57;;;;;;;22.00;11.48;;;13.00;73.10;;;;;;5095138;28;20467;-68
2022/04/16 08:46:23;;;;;;;21.70;12.10;;;13.10;72.90;;;;;;5113077;28;20028;-68
2022/04/16 08:48:49;;;;;;;18.38;10.98;;;13.10;72.30;;;;;;5113088;28;20024;-68
2022/04/16 08:51:16;;;;;;;22.30;11.73;;;13.20;72.60;;;;;;5113130;28;20051;-68
2022/04/16 08:53:41;;;;;;;19.48;11.35;;;13.30;72.10;;;;;;5112954;28;20024;-68
2022/04/16 08:56:07;;;;;;;17.77;10.60;;;13.40;71.40;;;;;;5112975;28;20056;-67
2022/04/16 08:58:33;;;;;;;15.60;9.60;;;13.40;70.80;;;;;;5112939;28;20087;-68
2022/04/16 09:00:59;;;;;;;18.42;10.80;;;13.50;70.70;;;;;;5112959;28;20020;-67
2022/04/16 09:03:36;;;;;;;17.02;10.02;;;13.60;70.70;;;;;;5112926;28;20016;-68
2022/04/16 09:06:05;;;;;;;16.80;10.10;;;13.60;68.50;;;;;;5113072;28;20058;-68
2022/04/16 09:08:32;;;;;;;18.52;9.82;;;13.60;69.60;;;;;;5112823;28;20115;-66
2022/04/16 09:11:12;;;;;;;18.23;10.63;;;13.70;68.80;;;;;;5112907;28;20043;-67
2022/04/16 09:14:01;;;;;;;18.80;10.32;;;13.80;69.20;;;;;;5094893;28;20054;-67
2022/04/16 09:16:27;;;;;;;18.65;11.02;;;14.00;68.80;;;;;;5112604;28;20067;-67
2022/04/16 09:18:55;;;;;;;16.02;9.85;;;14.10;68.70;;;;;;5112774;28;20091;-67
2022/04/16 09:21:25;;;;;;;16.98;10.32;;;14.20;68.00;;;;;;5112843;28;20031;-67
2022/04/16 09:24:02;;;;;;;15.68;9.38;;;14.30;66.70;;;;;;5116398;28;20039;-67
2022/04/16 09:26:39;;;;;;;16.65;9.35;;;14.30;66.70;;;;;;5116513;28;20039;-67
2022/04/16 09:29:12;;;;;;;15.27;9.15;;;14.40;66.30;;;;;;5116304;28;20031;-67
2022/04/16 09:31:40;;;;;;;13.98;7.97;;;14.40;65.20;;;;;;5116372;28;20094;-67
2022/04/16 09:34:07;;;;;;;14.90;8.93;;;14.50;65.80;;;;;;5116201;28;20034;-67
2022/04/16 09:36:39;;;;;;;15.00;8.55;;;14.50;63.80;;;;;;5116212;28;20080;-67
2022/04/16 09:39:10;;;;;;;14.52;8.68;;;14.60;64.30;;;;;;5116263;28;20039;-67
2022/04/16 09:41:41;;;;;;;11.35;7.90;;;14.50;63.70;;;;;;5116286;28;20024;-67
2022/04/16 09:44:21;;;;;;;11.45;7.15;;;14.60;64.70;;;;;;5116067;28;20044;-67
2022/04/16 09:46:48;;;;;;;12.73;7.82;;;14.80;64.10;;;;;;5116009;28;20049;-67
2022/04/16 09:49:16;;;;;;;14.30;8.30;;;14.80;62.10;;;;;;5116004;28;20031;-68
2022/04/16 09:51:43;;;;;;;12.23;7.22;;;14.90;61.90;;;;;;5098047;28;20410;-66
2022/04/16 09:54:10;;;;;;;9.70;6.45;;;15.00;62.10;;;;;;5115805;28;20091;-66
2022/04/16 09:56:37;;;;;;;12.57;7.88;;;15.00;61.80;;;;;;5115797;28;20031;-66
2022/04/16 09:59:08;;;;;;;9.77;5.57;;;15.20;62.70;;;;;;5098207;28;20021;-67
2022/04/16 10:01:38;;;;;;;12.23;6.53;;;15.40;59.80;;;;;;5115824;28;20016;-67
2022/04/16 10:04:07;;;;;;;9.00;5.50;;;15.40;58.80;;;;;;5115804;28;20058;-67
2022/04/16 10:06:34;;;;;;;8.40;5.72;;;15.40;59.40;;;;;;5115675;28;20090;-67
2022/04/16 10:09:13;;;;;;;8.80;5.70;;;15.40;57.90;;;;;;5115539;28;20092;-68
2022/04/16 10:14:47;;;;;;;10.63;6.30;;;15.20;58.10;;;;;;5115368;28;20067;-67
2022/04/16 10:17:27;;;;;;;10.43;6.25;;;15.40;60.00;;;;;;5115519;28;20031;-67
2022/04/16 10:19:54;;;;;;;8.85;5.10;;;15.50;58.40;;;;;;5115429;28;20020;-67
2022/04/16 10:22:27;;;;;;;11.93;7.00;;;15.40;56.70;;;;;;5115227;28;20019;-68
2022/04/16 10:24:57;;;;;;;9.48;6.72;;;15.40;58.00;;;;;;5115257;28;20038;-68
2022/04/16 10:27:42;;;;;;;10.80;5.90;;;15.40;57.50;;;;;;5115255;28;20107;-68
2022/04/16 10:30:11;;;;;;;9.75;6.32;;;15.60;58.00;;;;;;5115236;28;20061;-68
2022/04/16 10:32:39;;;;;;;9.35;5.55;;;15.50;56.30;;;;;;5115126;28;20028;-68
2022/04/16 10:35:06;;;;;;;8.40;5.28;;;15.60;57.20;;;;;;5114998;28;20080;-68
2022/04/16 10:37:40;;;;;;;7.53;4.55;;;15.60;57.20;;;;;;5114969;28;20020;-67
2022/04/16 10:40:26;;;;;;;11.48;5.72;;;15.80;55.90;;;;;;5115009;28;20479;-67
2022/04/16 10:42:58;;;;;;;9.90;5.97;;;15.80;55.20;;;;;;5114929;28;20079;-68
2022/04/16 10:45:25;;;;;;;9.70;6.07;;;15.90;55.30;;;;;;5114839;28;20058;-68
2022/04/16 10:47:53;;;;;;;7.53;4.60;;;15.90;55.90;;;;;;5114934;28;20030;-67
2022/04/16 10:50:20;;;;;;;8.20;5.38;;;15.90;53.40;;;;;;5114793;28;20027;-67
2022/04/16 10:52:56;;;;;;;8.35;4.80;;;16.00;54.00;;;;;;5114785;28;20032;-67
2022/04/16 10:55:30;;;;;;;8.23;5.55;;;16.00;53.20;;;;;;5114539;28;20032;-67
2022/04/16 10:58:03;;;;;;;10.88;5.28;;;16.00;53.30;;;;;;5114651;28;20016;-70
2022/04/16 11:00:41;;;;;;;9.30;5.43;;;15.90;53.40;;;;;;5114712;28;20016;-68
2022/04/16 11:03:17;;;;;;;12.20;6.47;;;16.00;54.10;;;;;;5114549;28;20017;-68
2022/04/16 11:05:43;;;;;;;10.57;6.43;;;16.10;53.90;;;;;;5114494;28;20055;-68
2022/04/16 11:08:14;;;;;;;10.20;6.22;;;16.10;53.40;;;;;;5096389;28;20033;-68
2022/04/16 11:10:41;;;;;;;11.23;6.85;;;15.90;53.90;;;;;;5096469;28;20494;-68
2022/04/16 11:13:07;;;;;;;9.13;5.68;;;16.00;56.30;;;;;;5114371;28;20049;-68
2022/04/16 11:15:33;;;;;;;8.63;5.22;;;16.10;54.70;;;;;;5096166;28;20498;-67
2022/04/16 11:18:01;;;;;;;11.57;6.05;;;16.30;55.10;;;;;;5114252;28;20024;-67
2022/04/16 11:20:27;;;;;;;7.88;5.05;;;16.40;53.30;;;;;;5114204;28;20016;-67
2022/04/16 11:22:56;;;;;;;8.48;5.15;;;16.50;50.20;;;;;;5114196;28;20103;-67
2022/04/16 11:25:23;;;;;;;8.93;5.05;;;16.50;51.50;;;;;;5114123;28;20024;-68
2022/04/16 11:36:09;;;;;;;7.20;4.10;;;16.80;51.30;;;;;;5113923;28;20061;-68
2022/04/16 11:38:39;;;;;;;5.18;3.70;;;16.90;50.70;;;;;;5113972;28;20053;-67
2022/04/16 11:41:10;;;;;;;5.90;4.15;;;17.00;49.40;;;;;;5113807;28;20020;-67
2022/04/16 11:43:38;;;;;;;6.65;4.10;;;17.10;48.90;;;;;;5113951;28;20020;-67
2022/04/16 11:46:11;;;;;;;7.38;4.13;;;17.20;48.00;;;;;;5113401;28;20031;-68
2022/04/16 11:48:37;;;;;;;8.65;4.80;;;17.30;47.10;;;;;;5113780;28;20027;-67
2022/04/16 11:51:04;;;;;;;7.68;4.85;;;17.20;47.10;;;;;;5113747;28;20032;-68
2022/04/16 11:53:30;;;;;;;6.30;4.35;;;17.30;45.40;;;;;;5113707;28;20031;-68
2022/04/16 11:55:56;;;;;;;7.32;4.82;;;17.10;47.00;;;;;;5113566;28;20027;-68
2022/04/16 11:58:29;;;;;;;8.10;4.82;;;17.20;47.70;;;;;;5113640;28;20020;-68
2022/04/16 12:00:55;;;;;;;7.00;4.55;;;17.10;45.70;;;;;;5113557;28;20477;-68
2022/04/16 12:03:22;;;;;;;8.10;4.82;;;17.10;48.70;;;;;;5113552;28;20050;-68
2022/04/16 12:05:50;;;;;;;7.32;5.43;;;17.30;47.30;;;;;;5113543;28;20032;-68
2022/04/16 12:08:19;;;;;;;6.78;4.78;;;17.40;48.10;;;;;;5113459;28;20028;-68
2022/04/16 12:10:48;;;;;;;8.32;4.85;;;17.50;45.50;;;;;;5113446;28;20021;-68
2022/04/16 12:13:14;;;;;;;6.57;4.57;;;17.50;45.80;;;;;;5113397;28;20035;-68
2022/04/16 12:15:49;;;;;;;7.50;4.38;;;17.50;46.10;;;;;;5113185;28;20044;-67
2022/04/16 12:18:16;;;;;;;6.30;4.28;;;17.60;45.20;;;;;;5113412;28;20024;-67
2022/04/16 12:20:49;;;;;;;6.43;4.80;;;17.70;46.30;;;;;;5113333;28;20024;-67
2022/04/16 12:23:24;;;;;;;7.53;4.72;;;17.80;45.20;;;;;;5113342;28;20020;-68
2022/04/16 12:26:01;;;;;;;6.93;4.72;;;17.90;44.30;;;;;;5113436;28;20058;-68
2022/04/16 12:28:28;;;;;;;6.93;4.68;;;17.80;44.30;;;;;;5113286;28;20043;-68
2022/04/16 12:30:54;;;;;;;6.60;4.60;;;17.80;45.00;;;;;;5113245;28;20028;-68
2022/04/16 12:33:25;;;;;;;6.78;4.35;;;17.90;43.50;;;;;;5113212;28;20032;-68
2022/04/16 12:35:55;;;;;;;6.20;4.30;;;17.90;42.00;;;;;;5113164;28;20081;-68
2022/04/16 12:38:22;;;;;;;6.88;4.65;;;17.80;40.40;;;;;;5113271;28;20021;-68
2022/04/16 12:40:47;;;;;;;7.07;4.88;;;17.90;43.60;;;;;;5113218;28;20032;-68
2022/04/16 12:43:16;;;;;;;5.10;3.80;;;18.00;43.50;;;;;;5113044;28;20024;-68
2022/04/16 12:45:41;;;;;;;7.07;4.18;;;18.10;43.10;;;;;;5113147;28;20047;-68
2022/04/16 12:48:08;;;;;;;7.03;4.50;;;18.20;42.90;;;;;;5095289;28;20028;-69
2022/04/16 12:50:34;;;;;;;7.25;4.60;;;18.30;42.90;;;;;;5113080;28;20044;-68
2022/04/16 12:53:00;;;;;;;5.72;4.03;;;18.40;41.60;;;;;;5113052;28;20024;-67
2022/04/16 12:55:26;;;;;;;5.82;3.83;;;18.50;39.60;;;;;;5112934;28;20067;-69
2022/04/16 12:57:52;;;;;;;6.15;4.32;;;18.30;39.30;;;;;;5115547;28;20020;-69
2022/04/16 13:00:18;;;;;;;5.95;4.20;;;18.00;38.80;;;;;;5098995;28;20066;-68
2022/04/16 13:02:45;;;;;;;7.18;4.28;;;18.00;39.50;;;;;;5116896;28;20062;-69
2022/04/16 13:05:16;;;;;;;5.78;3.80;;;18.10;39.40;;;;;;5116852;28;20016;-69